x

East Gulf - 208 Mn West Of Naples, Fl (42003) Wave Buoy

3:50pm - Sun 2nd Aug 2015 All times are EDT. -4 hours from GMT.

  • Sig Wave height 2.6ft
  • Swell Direction
  • Peak Period 4s
  • Average Period 4s
  • Wind
    7mph
  • Sea Temp 84°f
  • Air Temp 83°f
  • Sea Pressure 1014.2mb
  • East Gulf - 208 Mn West Of Naples, Fl
  • East Gulf - 208 Mn West Of Naples, Fl

More Historic Weather Station data

Upgrade to MSW Pro to gain access to the past 30 days of data for over 8000 Wavebouys and Weather Stations around the globe.

Join Pro

Comparision Forecast

View Surf forecast
   
Sun 08/02 3:50pm 2.5ft 4s 4s 7
mph
1014.2mb 84f 83f
2:50pm 3ft 6s 4s 16 20 mph 1015.2mb 84f 81f
1:50pm 2.5ft 6s 4s 11 16 mph 1015.3mb 84f 82f
12:50pm 3ft 6s 4s 18 22 mph 1015.4mb 84f 77f
11:50am 3.5ft 6s 5s 22 27 mph 1014.6mb 84f 80f
10:50am 3.5ft 6s 5s 11 13 mph 1014.2mb 84f 84f
9:50am 3.5ft 6s 5s 7 11 mph 1013.7mb 84f 85f
8:50am 3ft 6s 5s 11 13 mph 1013.1mb 84f 84f
7:50am 3.5ft 6s 5s 13 16 mph 1012.7mb 84f 85f
6:50am 3.5ft 6s 5s 9 11 mph 1012.4mb 84f 83f
5:50am 3.5ft 6s 5s 11 16 mph 1012.1mb 84f 83f
4:50am 3.5ft 6s 5s 13 16 mph 1012.2mb 84f 84f
3:50am 4ft 6s 5s 13 16 mph 1012.6mb 84f 84f
2:50am 4ft 6s 5s 16 20 mph 1012.7mb 84f 84f
1:50am 4ft 5s 5s 18 20 mph 1013.3mb 84f 85f
12:50am 4ft 5s 5s 18 20 mph 1014mb 84f 85f
Sat 08/01 11:50pm 4ft 5s 5s 18 20 mph 1014mb 84f 85f
10:50pm 3.5ft 6s 5s 16 20 mph 1014mb 84f 85f
9:50pm 4ft 6s 5s 16 18 mph 1013.6mb 84f 85f
8:50pm 4ft 6s 4s 16 20 mph 1013.1mb 84f 85f
7:50pm 4.5ft 5s 5s 18 20 mph 1012.9mb 85f 85f
6:50pm 4ft 5s 4s 18 22 mph 1012.8mb 85f 85f
5:50pm 4ft 5s 4s 18 20 mph 1013mb 85f 85f
4:50pm 3.5ft 5s 4s 20 22 mph 1013mb 85f 85f
3:50pm 3.5ft 6s 4s 18 20 mph 1013.6mb 85f 85f
2:50pm 3.5ft 5s 4s 18 20 mph 1014mb 85f 85f
1:50pm 3.5ft 5s 4s 16 20 mph 1014.3mb 85f 85f
12:50pm 3.5ft 5s 4s 18 20 mph 1014.3mb 84f 85f
11:50am 3.5ft 5s 5s 16 20 mph 1014.2mb 84f 85f
10:50am 3.5ft 5s 5s 16 20 mph 1014.4mb 84f 85f
9:50am 3.5ft 6s 5s 16 18 mph 1014mb 84f 84f
8:50am 3ft 5s 5s 16 18 mph 1013.7mb 84f 84f
7:50am 3ft 5s 5s 13 18 mph 1013.5mb 84f 84f
6:50am 3.5ft 6s 5s 13 16 mph 1013.5mb 84f 84f
5:50am 3.5ft 6s 5s 11 13 mph 1013.6mb 84f 84f
4:50am 4ft 6s 5s 13 16 mph 1013.5mb 84f 85f
3:50am 4ft 6s 5s 13 16 mph 1013.5mb 85f 84f
2:50am 3.5ft 6s 5s 13 16 mph 1014.1mb 85f 84f
1:50am 3.5ft 6s 5s 11 13 mph 1014.8mb 84f 84f
12:50am 3.5ft 5s 5s 11 13 mph 1015.3mb 84f 84f
Fri 07/31 11:50pm 3ft 5s 4s 13 16 mph 1015.6mb 84f 85f
10:50pm 3.5ft 5s 5s 9 11 mph 1015.1mb 84f 83f
9:50pm 3.5ft 6s 5s 7 9 mph 1014.9mb 84f 82f
8:50pm 4ft 6s 4s 9 11 mph 1014.7mb 84f 80f
7:50pm 4.5ft 5s 4s 16 20 mph 1014mb 85f 79f
6:50pm 3ft 5s 4s 34 40 mph 1013.2mb 85f 79f
5:50pm 3.5ft 5s 4s 7 9 mph 1014mb 85f 82f
4:50pm 3ft 5s 4s 13 18 mph 1014.2mb 85f 83f
3:50pm 3.5ft 5s 4s 13 16 mph 1014.3mb 85f 85f
2:50pm 3.5ft 5s 4s 13 16 mph 1014.9mb 85f 84f
1:50pm 3.5ft 5s 4s 16 18 mph 1015.3mb 85f 84f
12:50pm 3ft 4s 4s 16 18 mph 1015.6mb 84f 84f
11:50am 3ft 5s 4s 16 20 mph 1015.7mb 84f 84f
10:50am 3ft 5s 4s 16 18 mph 1015.4mb 84f 84f
9:50am 3ft 5s 4s 16 18 mph 1015.3mb 84f 83f
8:50am 3.5ft 5s 4s 16 18 mph 1014.9mb 85f 83f
7:50am 3.5ft 5s 4s 18 20 mph 1014.3mb 85f 83f
6:50am 3ft 4s 4s 18 22 mph 1014.1mb 84f 83f
5:50am 3ft 4s 4s 18 20 mph 1013.7mb 84f 82f
4:50am 2.5ft 5s 4s 13 18 mph 1013.9mb 85f 83f
3:50am 2.5ft 5s 4s 20 31 mph 1013.9mb 85f 83f
2:50am 2.5ft 5s 4s 13 16 mph 1014.8mb 85f 84f
1:50am 2.5ft 5s 4s 13 16 mph 1015.3mb 85f 84f
12:50am 2.5ft 5s 4s 13 16 mph 1015.9mb 84f 84f
Thu 07/30 11:50pm 2.5ft 5s 4s 13 16 mph 1016.2mb 85f 84f
10:50pm 2.5ft 5s 4s 13 18 mph 1015.9mb 85f 84f
9:50pm 3.5ft 5s 4s 16 18 mph 1014.9mb 84f 84f
8:50pm 2.5ft 4s 4s 16 18 mph 1014.3mb 84f 83f
7:50pm 2.5ft 4s 4s 16 20 mph 1014.1mb 84f 83f
6:50pm 2.5ft 3s 4s 13 16 mph 1014.2mb 84f 83f
5:50pm 2.5ft 3s 4s 16 18 mph 1014.7mb 84f 83f
4:50pm 1.6ft 9s 4s 18 20 mph 1015.1mb 84f 83f
3:50pm 1.6ft 10s 4s 13 16 mph 1015.7mb 85f 82f
2:50pm 1.6ft 8s 4s 11 16 mph 1016.5mb 85f 83f
1:50pm 1.6ft 7s 4s 11 13 mph 1016.9mb 85f 83f
12:50pm 1.6ft 10s 4s 9 13 mph 1017.3mb 85f 83f
11:50am 1.6ft 10s 4s 11 16 mph 1017.2mb 85f 83f
10:50am 1.6ft 9s 4s 9 11 mph 1017.2mb 85f 83f
9:50am 1.3ft 8s 4s 11 16 mph 1016.9mb 85f 82f
8:50am 1.6ft 24s 4s 7 9 mph 1016.4mb 85f 81f
7:50am 1.3ft 7s 4s 9 11 mph 1015.6mb 85f 84f
6:50am 1.3ft 8s 4s 7 9 mph 1015mb 85f 83f
5:50am 1.3ft 8s 4s 11 16 mph 1014.7mb 85f 84f
4:50am 1.3ft 8s 4s 11 13 mph 1014.8mb 84f 84f
3:50am 1.3ft 8s 4s 11 13 mph 1015mb 84f 83f
2:50am 1.3ft 8s 4s 11 13 mph 1015.3mb 85f 84f
1:50am 1.3ft 9s 5s 11 13 mph 1015.9mb 85f 83f
12:50am 1.3ft 8s 5s 9 11 mph 1016.4mb 85f 83f
Wed 07/29 11:50pm 1.3ft 8s 5s 9
mph
1016.6mb 84f 83f
10:50pm 1.3ft 9s 5s 9
mph
1016.7mb 84f 83f
9:50pm 1.3ft 8s 5s 7 9 mph 1016.5mb 84f 83f